Time,TemperatureF,DewpointF,PressureIn,WindDirection,WindDirectionDegrees,WindSpeedMPH,WindSpeedGustMPH,Humidity,HourlyPrecipIn,Conditions,Clouds,dailyrainin,SoftwareType,DateUTC
2013-10-15 00:14:00,57.0,54.0,-100.00,ENE,65,4.0,6.0,90,0.00,,,0.00,,2013-10-15 04:14:00,
2013-10-15 00:24:00,57.0,54.0,-100.00,ENE,65,4.0,6.0,90,0.00,,,0.00,,2013-10-15 04:24:00,
2013-10-15 00:43:00,57.0,54.0,-100.00,NE,51,5.0,7.0,91,0.00,,,0.00,,2013-10-15 04:43:00,
2013-10-15 00:54:00,57.0,54.0,-100.00,NE,45,6.0,8.0,90,0.00,,,0.00,,2013-10-15 04:54:00,
2013-10-15 01:13:00,57.0,54.0,-100.00,NE,42,4.0,6.0,91,0.00,,,0.00,,2013-10-15 05:13:00,
2013-10-15 01:22:00,56.0,54.0,-100.00,ENE,69,3.0,6.0,91,0.00,,,-99.99,,2013-10-15 05:22:00,
2013-10-15 01:34:00,56.0,54.0,-100.00,ENE,69,3.0,6.0,91,0.00,,,-99.99,,2013-10-15 05:34:00,
2013-10-15 01:40:00,56.0,54.0,-100.00,NE,49,6.0,8.0,91,0.00,,,-99.99,,2013-10-15 05:40:00,
2013-10-15 01:42:00,56.0,54.0,-100.00,ENE,69,3.0,6.0,91,0.00,,,-99.99,,2013-10-15 05:42:00,
2013-10-15 01:53:00,56.0,54.0,-100.00,ENE,69,3.0,6.0,91,0.00,,,-99.99,,2013-10-15 05:53:00,
2013-10-15 02:22:00,56.0,54.0,-100.00,NE,49,6.0,8.0,91,0.00,,,-99.99,,2013-10-15 06:22:00,
2013-10-15 02:32:00,56.0,54.0,-100.00,NE,49,6.0,8.0,91,0.00,,,-99.99,,2013-10-15 06:32:00,
2013-10-15 04:12:00,55.0,53.0,-100.00,ENE,64,3.0,5.0,92,0.00,,,-99.99,,2013-10-15 08:12:00,
2013-10-15 04:22:00,55.0,53.0,-100.00,NE,42,5.0,7.0,93,0.00,,,-99.99,,2013-10-15 08:22:00,
2013-10-15 04:32:00,55.0,53.0,-100.00,NE,42,5.0,7.0,93,0.00,,,-99.99,,2013-10-15 08:32:00,
2013-10-15 04:52:00,55.0,53.0,-100.00,NNE,32,5.0,7.0,93,0.00,,,-99.99,,2013-10-15 08:52:00,
2013-10-15 05:12:00,55.0,53.0,-100.00,NE,34,5.0,7.0,94,0.00,,,-99.99,,2013-10-15 09:12:00,
2013-10-15 05:22:00,55.0,53.0,-100.00,NE,34,5.0,7.0,94,0.00,,,-99.99,,2013-10-15 09:22:00,
2013-10-15 05:43:00,54.0,53.0,-100.00,NNE,28,5.0,7.0,94,0.00,,,-99.99,,2013-10-15 09:43:00,
2013-10-15 06:13:00,54.0,52.0,-100.00,NE,40,4.0,5.0,95,0.00,,,-99.99,,2013-10-15 10:13:00,
2013-10-15 06:23:00,54.0,52.0,-100.00,NE,40,4.0,5.0,95,0.00,,,-99.99,,2013-10-15 10:23:00,
2013-10-15 06:42:00,53.0,52.0,-100.00,NNE,20,3.0,5.0,95,0.00,,,-99.99,,2013-10-15 10:42:00,
2013-10-15 06:53:00,53.0,52.0,-100.00,NE,45,4.0,7.0,95,0.00,,,-99.99,,2013-10-15 10:53:00,
2013-10-15 07:02:00,53.0,52.0,-100.00,NE,45,4.0,7.0,95,0.00,,,-99.99,,2013-10-15 11:02:00,
2013-10-15 07:22:00,53.0,52.0,-100.00,NE,40,3.0,5.0,95,0.00,,,-99.99,,2013-10-15 11:22:00,
2013-10-15 07:33:00,53.0,52.0,-100.00,NE,40,3.0,5.0,95,0.00,,,-99.99,,2013-10-15 11:33:00,
2013-10-15 07:42:00,53.0,52.0,-100.00,NE,40,3.0,5.0,95,0.00,,,-99.99,,2013-10-15 11:42:00,
2013-10-15 07:53:00,53.0,52.0,-100.00,NNE,30,2.0,5.0,95,0.00,,,-99.99,,2013-10-15 11:53:00,
2013-10-15 08:01:00,53.0,52.0,-100.00,NNE,30,2.0,5.0,95,0.00,,,-99.99,,2013-10-15 12:01:00,
2013-10-15 08:22:00,53.0,52.0,-100.00,ENE,61,3.0,5.0,95,0.00,,,-99.99,,2013-10-15 12:22:00,
2013-10-15 08:42:00,53.0,52.0,-100.00,ENE,71,3.0,5.0,95,0.00,,,-99.99,,2013-10-15 12:42:00,
2013-10-15 08:52:00,53.0,52.0,-100.00,ENE,58,6.0,11.0,96,0.00,,,-99.99,,2013-10-15 12:52:00,
2013-10-15 09:02:00,53.0,52.0,-100.00,ENE,58,6.0,11.0,96,0.00,,,-99.99,,2013-10-15 13:02:00,
2013-10-15 09:21:00,53.0,52.0,-100.00,ENE,72,3.0,5.0,96,0.00,,,-99.99,,2013-10-15 13:21:00,
2013-10-15 09:32:00,53.0,52.0,-100.00,ENE,72,3.0,5.0,96,0.00,,,-99.99,,2013-10-15 13:32:00,
2013-10-15 09:42:00,53.0,52.0,-100.00,ENE,72,3.0,5.0,96,0.00,,,-99.99,,2013-10-15 13:42:00,
2013-10-15 09:52:00,54.0,53.0,-100.00,NE,35,4.0,5.0,94,0.00,,,-99.99,,2013-10-15 13:52:00,
2013-10-15 10:12:00,56.0,53.0,-100.00,NE,45,4.0,6.0,91,0.00,,,-99.99,,2013-10-15 14:12:00,
2013-10-15 10:22:00,56.0,53.0,-100.00,NE,45,4.0,6.0,91,0.00,,,-99.99,,2013-10-15 14:22:00,
2013-10-15 10:52:00,61.0,55.0,-100.00,ENE,69,2.0,5.0,81,0.00,,,-99.99,,2013-10-15 14:52:00,
2013-10-15 11:02:00,61.0,55.0,-100.00,ENE,69,2.0,5.0,81,0.00,,,-99.99,,2013-10-15 15:02:00,
2013-10-15 11:11:00,61.0,55.0,-100.00,ENE,69,2.0,5.0,81,0.00,,,-99.99,,2013-10-15 15:11:00,
2013-10-15 11:22:00,63.0,50.0,-100.00,East,86,4.0,7.0,61,0.00,,,-99.99,,2013-10-15 15:22:00,
2013-10-15 11:34:00,63.0,50.0,-100.00,East,86,4.0,7.0,61,0.00,,,-99.99,,2013-10-15 15:34:00,
2013-10-15 11:44:00,63.0,50.0,-100.00,East,86,4.0,7.0,61,0.00,,,-99.99,,2013-10-15 15:44:00,
2013-10-15 11:53:00,65.0,50.0,-100.00,East,88,5.0,9.0,58,0.00,,,-99.99,,2013-10-15 15:53:00,
2013-10-15 12:03:00,65.0,50.0,-100.00,East,88,5.0,9.0,58,0.00,,,-99.99,,2013-10-15 16:03:00,
2013-10-15 12:23:00,66.0,51.0,-100.00,SSE,158,6.0,10.0,58,0.00,,,-99.99,,2013-10-15 16:23:00,
2013-10-15 12:33:00,66.0,51.0,-100.00,SSE,158,6.0,10.0,58,0.00,,,-99.99,,2013-10-15 16:33:00,
2013-10-15 12:53:00,66.0,53.0,-100.00,ENE,68,4.0,9.0,61,0.00,,,-99.99,,2013-10-15 16:53:00,
2013-10-15 13:12:00,68.0,54.0,-100.00,ENE,75,4.0,6.0,62,0.00,,,-99.99,,2013-10-15 17:12:00,
2013-10-15 13:22:00,68.0,54.0,-100.00,ENE,75,4.0,6.0,62,0.00,,,-99.99,,2013-10-15 17:22:00,
2013-10-15 13:53:00,70.0,54.0,-100.00,ENE,59,3.0,7.0,58,0.00,,,-99.99,,2013-10-15 17:53:00,
2013-10-15 14:12:00,71.0,55.0,-100.00,ENE,72,2.0,5.0,58,0.00,,,-99.99,,2013-10-15 18:12:00,
2013-10-15 14:22:00,70.0,55.0,-100.00,NE,37,4.0,6.0,58,0.00,,,-99.99,,2013-10-15 18:22:00,
2013-10-15 14:32:00,70.0,55.0,-100.00,NE,37,4.0,6.0,58,0.00,,,-99.99,,2013-10-15 18:32:00,
2013-10-15 14:52:00,71.0,55.0,-100.00,NE,40,4.0,5.0,58,0.00,,,-99.99,,2013-10-15 18:52:00,
2013-10-15 15:12:00,71.0,57.0,-100.00,East,82,3.0,4.0,62,0.00,,,-99.99,,2013-10-15 19:12:00,
2013-10-15 15:22:00,74.0,58.0,-100.00,SE,126,1.0,4.0,56,0.00,,,-99.99,,2013-10-15 19:22:00,
2013-10-15 15:32:00,74.0,58.0,-100.00,SE,126,1.0,4.0,56,0.00,,,-99.99,,2013-10-15 19:32:00,
2013-10-15 15:52:00,72.0,57.0,-100.00,ENE,76,1.0,2.0,61,0.00,,,-99.99,,2013-10-15 19:52:00,
2013-10-15 16:03:00,72.0,57.0,-100.00,ENE,76,1.0,2.0,61,0.00,,,-99.99,,2013-10-15 20:03:00,
2013-10-15 16:22:00,73.0,58.0,-100.00,SE,134,2.0,4.0,59,0.00,,,-99.99,,2013-10-15 20:22:00,
2013-10-15 16:42:00,71.0,59.0,-100.00,East,97,2.0,4.0,65,0.00,,,-99.99,,2013-10-15 20:42:00,
2013-10-15 16:52:00,70.0,57.0,-100.00,ENE,66,3.0,6.0,64,0.00,,,-99.99,,2013-10-15 20:52:00,
2013-10-15 17:13:00,71.0,57.0,-100.00,East,83,2.0,5.0,62,0.00,,,-99.99,,2013-10-15 21:13:00,
2013-10-15 17:22:00,71.0,58.0,-100.00,ENE,75,3.0,5.0,63,0.00,,,-99.99,,2013-10-15 21:22:00,
2013-10-15 17:34:00,71.0,58.0,-100.00,ENE,75,3.0,5.0,63,0.00,,,-99.99,,2013-10-15 21:34:00,
2013-10-15 17:44:00,71.0,58.0,-100.00,ENE,75,3.0,5.0,63,0.00,,,-99.99,,2013-10-15 21:44:00,
2013-10-15 17:54:00,70.0,58.0,-100.00,East,88,3.0,5.0,66,0.00,,,-99.99,,2013-10-15 21:54:00,
2013-10-15 18:04:00,70.0,58.0,-100.00,East,88,3.0,5.0,66,0.00,,,-99.99,,2013-10-15 22:04:00,
2013-10-15 18:23:00,68.0,58.0,-100.00,East,85,2.0,4.0,70,0.00,,,-99.99,,2013-10-15 22:23:00,
2013-10-15 18:33:00,68.0,58.0,-100.00,East,85,2.0,4.0,70,0.00,,,-99.99,,2013-10-15 22:33:00,
2013-10-15 18:54:00,68.0,59.0,-100.00,East,89,1.0,3.0,73,0.00,,,-99.99,,2013-10-15 22:54:00,
2013-10-15 19:12:00,68.0,59.0,-100.00,East,89,1.0,3.0,73,0.00,,,-99.99,,2013-10-15 23:12:00,
2013-10-15 19:22:00,68.0,59.0,-100.00,NE,54,3.0,5.0,74,0.00,,,-99.99,,2013-10-15 23:22:00,
2013-10-15 19:34:00,68.0,59.0,-100.00,NE,54,3.0,5.0,74,0.00,,,-99.99,,2013-10-15 23:34:00,
2013-10-15 19:43:00,68.0,59.0,-100.00,NE,54,3.0,5.0,74,0.00,,,-99.99,,2013-10-15 23:43:00,
2013-10-15 19:53:00,68.0,59.0,-100.00,NE,54,3.0,5.0,74,0.00,,,-99.99,,2013-10-15 23:53:00,
2013-10-15 20:22:00,66.0,60.0,-100.00,East,95,1.0,2.0,80,0.00,,,-99.99,,2013-10-16 00:22:00,
2013-10-15 20:33:00,66.0,60.0,-100.00,East,95,1.0,2.0,80,0.00,,,-99.99,,2013-10-16 00:33:00,
2013-10-15 20:52:00,66.0,60.0,-100.00,ESE,121,0.0,1.0,81,0.00,,,-99.99,,2013-10-16 00:52:00,
2013-10-15 21:11:00,66.0,60.0,-100.00,SE,138,0.0,2.0,82,0.00,,,-99.99,,2013-10-16 01:11:00,
2013-10-15 21:22:00,66.0,60.0,-100.00,ESE,112,1.0,2.0,82,0.00,,,-99.99,,2013-10-16 01:22:00,
2013-10-15 21:32:00,66.0,60.0,-100.00,ESE,112,1.0,2.0,82,0.00,,,-99.99,,2013-10-16 01:32:00,
2013-10-15 21:53:00,65.0,60.0,-100.00,ESE,106,1.0,2.0,82,0.00,,,-99.99,,2013-10-16 01:53:00,
2013-10-15 22:02:00,65.0,60.0,-100.00,ESE,106,1.0,2.0,82,0.00,,,-99.99,,2013-10-16 02:02:00,
2013-10-15 22:22:00,65.0,60.0,-100.00,ESE,123,1.0,3.0,83,0.00,,,-99.99,,2013-10-16 02:22:00,
2013-10-15 22:52:00,65.0,60.0,-100.00,East,92,1.0,2.0,83,0.00,,,-99.99,,2013-10-16 02:52:00,
2013-10-15 23:22:00,65.0,60.0,-100.00,East,88,0.0,2.0,84,0.00,,,-99.99,,2013-10-16 03:22:00,
2013-10-15 23:34:00,65.0,60.0,-100.00,East,88,0.0,2.0,84,0.00,,,-99.99,,2013-10-16 03:34:00,
2013-10-15 23:45:00,65.0,60.0,-100.00,East,88,0.0,2.0,84,0.00,,,-99.99,,2013-10-16 03:45:00,
2013-10-15 23:55:00,64.0,60.0,-100.00,ESE,102,1.0,1.0,85,0.00,,,-99.99,,2013-10-16 03:55:00,